Time;durP1;ratioP1;P1;durP2;ratioP2;P2;SDS_P1;SDS_P2;PMS_P1;PMS_P2;Temp;Humidity;BMP_temperature;BMP_pressure;BME280_temperature;BME280_humidity;BME280_pressure;Samples;Min_cycle;Max_cycle;Signal;HPM_P1;HPM_P2
2022/05/23 00:00:08;;;;;;;3.67;1.90;;;;;;;12.07;80.35;100857.66;5034317;28;20025;-84
2022/05/23 00:02:34;;;;;;;2.55;1.95;;;;;;;12.06;80.73;100848.91;5034627;28;20078;-84
2022/05/23 00:04:59;;;;;;;2.08;1.85;;;;;;;12.06;80.54;100869.00;5034557;28;20025;-84
2022/05/23 00:07:34;;;;;;;2.60;1.88;;;;;;;12.06;80.32;100863.75;5051034;28;20400;-84
2022/05/23 00:10:00;;;;;;;1.52;1.42;;;;;;;12.06;81.02;100859.38;5051179;28;20398;-84
2022/05/23 00:12:26;;;;;;;1.55;1.45;;;;;;;12.06;80.83;100853.28;5034318;28;20397;-84
2022/05/23 00:14:52;;;;;;;2.55;1.90;;;;;;;12.07;80.77;100855.03;5034256;28;20029;-84
2022/05/23 00:17:19;;;;;;;2.33;1.98;;;;;;;12.07;80.64;100855.88;5034186;28;20032;-84
2022/05/23 00:19:44;;;;;;;2.22;1.80;;;;;;;12.07;80.90;100850.63;5034682;28;20029;-84
2022/05/23 00:22:11;;;;;;;1.73;1.63;;;;;;;12.06;81.17;100848.06;5034264;28;20036;-84
2022/05/23 00:24:36;;;;;;;2.63;2.03;;;;;;;12.05;80.85;100846.31;5050924;28;20055;-84
2022/05/23 00:27:02;;;;;;;2.28;1.95;;;;;;;12.05;81.58;100851.56;5034061;28;20017;-84
2022/05/23 00:29:28;;;;;;;2.72;2.25;;;;;;;12.04;81.72;100850.72;5050668;28;20452;-84
2022/05/23 00:37:22;;;;;;;2.20;2.03;;;;;;;12.03;80.04;100842.88;5050744;28;20068;-84
2022/05/23 00:39:48;;;;;;;2.30;2.20;;;;;;;12.00;80.95;100834.19;5034125;28;20482;-84
2022/05/23 00:45:01;;;;;;;1.90;1.80;;;;;;;11.96;80.28;100837.75;5051044;28;20032;-84
2022/05/23 00:47:28;;;;;;;2.17;1.85;;;;;;;11.94;81.28;100829.09;5050667;28;20052;-84
2022/05/23 00:49:53;;;;;;;2.22;2.05;;;;;;;11.93;80.82;100832.56;5033884;28;20056;-84
2022/05/23 00:52:40;;;;;;;1.95;1.85;;;;;;;11.90;81.49;100821.28;5033805;28;20469;-84
2022/05/23 00:55:20;;;;;;;3.38;2.15;;;;;;;11.89;81.75;100824.78;5044877;28;20051;-84
2022/05/23 00:57:47;;;;;;;2.55;1.85;;;;;;;11.87;81.36;100816.97;5037775;28;20025;-85
2022/05/23 01:00:12;;;;;;;2.55;1.95;;;;;;;11.86;81.86;100809.13;5037772;28;20478;-84
2022/05/23 01:02:39;;;;;;;2.30;1.70;;;;;;;11.81;80.79;100807.47;5037656;28;20031;-84
2022/05/23 01:05:06;;;;;;;2.53;2.13;;;;;;;11.80;80.90;100810.13;5037979;28;20032;-84
2022/05/23 01:07:31;;;;;;;4.45;2.20;;;;;;;11.77;80.71;100791.88;5037714;28;20475;-84
2022/05/23 01:09:57;;;;;;;2.67;1.92;;;;;;;11.76;80.86;100798.00;5037672;28;20032;-84
2022/05/23 01:12:22;;;;;;;2.95;2.55;;;;;;;11.73;81.76;100787.59;5037761;28;20025;-84
2022/05/23 01:15:00;;;;;;;2.50;2.13;;;;;;;11.71;81.64;100786.75;5037810;28;20029;-84
2022/05/23 01:17:27;;;;;;;1.98;1.88;;;;;;;11.67;81.50;100789.44;5037260;28;20032;-84
2022/05/23 01:19:53;;;;;;;2.38;2.20;;;;;;;11.65;81.69;100801.66;5037551;28;20506;-84
2022/05/23 01:22:43;;;;;;;2.75;2.25;;;;;;;11.66;82.10;100797.31;5037675;28;20111;-84
2022/05/23 01:25:23;;;;;;;2.22;2.00;;;;;;;11.65;82.57;100801.66;5055285;28;20024;-83
2022/05/23 01:27:48;;;;;;;2.95;2.13;;;;;;;11.64;81.88;100789.50;5054159;28;20027;-84
2022/05/23 01:30:15;;;;;;;2.70;2.50;;;;;;;11.63;82.14;100795.63;5054143;28;20029;-84
2022/05/23 01:32:40;;;;;;;2.10;1.98;;;;;;;11.62;82.20;100786.03;5037202;28;20021;-83
2022/05/23 01:35:07;;;;;;;1.98;1.88;;;;;;;11.62;82.94;100783.41;5053815;28;20052;-84
2022/05/23 01:37:33;;;;;;;3.25;2.42;;;;;;;11.62;82.73;100783.41;5036908;28;20071;-83
2022/05/23 01:39:58;;;;;;;2.60;2.40;;;;;;;11.61;82.11;100779.06;5037033;28;20029;-84
2022/05/23 01:42:24;;;;;;;2.92;2.35;;;;;;;11.61;82.21;100771.22;5036946;28;20152;-84
2022/05/23 01:44:49;;;;;;;2.35;2.17;;;;;;;11.62;82.30;100772.09;5037085;28;20021;-84
2022/05/23 01:47:18;;;;;;;2.60;2.42;;;;;;;11.61;83.09;100776.44;5053358;28;20027;-84
2022/05/23 01:49:43;;;;;;;3.30;2.70;;;;;;;11.63;83.29;100771.19;5036883;28;20070;-84
2022/05/23 01:52:09;;;;;;;2.58;2.30;;;;;;;11.63;82.72;100761.59;5037709;28;20033;-84
2022/05/23 01:54:35;;;;;;;2.42;2.22;;;;;;;11.65;83.39;100761.56;5038009;28;20437;-84
2022/05/23 01:57:02;;;;;;;3.10;2.33;;;;;;;11.65;82.89;100754.56;5037682;28;20021;-84
2022/05/23 02:02:11;;;;;;;3.58;2.55;;;;;;;11.67;83.33;100757.19;5054429;28;20058;-84
2022/05/23 02:04:37;;;;;;;3.30;2.15;;;;;;;11.69;82.71;100758.00;5054842;28;20024;-84
2022/05/23 02:07:06;;;;;;;3.08;2.17;;;;;;;11.69;83.04;100746.69;5036603;28;20024;-84
2022/05/23 02:09:32;;;;;;;2.53;2.25;;;;;;;11.70;83.32;100748.38;5036710;28;20029;-84
2022/05/23 02:11:58;;;;;;;2.70;2.50;;;;;;;11.70;82.87;100748.38;5036478;28;20028;-84
2022/05/23 02:14:23;;;;;;;2.50;2.30;;;;;;;11.69;82.55;100733.59;5053222;28;20025;-84
2022/05/23 02:16:49;;;;;;;2.78;2.58;;;;;;;11.69;83.28;100736.22;5052783;28;20033;-84
2022/05/23 02:19:14;;;;;;;2.78;2.50;;;;;;;11.66;82.52;100729.28;5079354;22;20044;-85
2022/05/23 02:21:40;;;;;;;2.25;2.15;;;;;;;11.63;83.03;100718.84;5092971;28;20118;-86
2022/05/23 02:24:06;;;;;;;2.42;2.22;;;;;;;11.61;82.64;100723.28;5093214;28;20024;-86
2022/05/23 02:26:32;;;;;;;2.70;2.50;;;;;;;11.59;83.02;100719.81;5072971;28;20020;-85
2022/05/23 02:28:58;;;;;;;3.10;2.80;;;;;;;11.56;83.29;100710.31;5072695;28;20024;-86
2022/05/23 02:31:25;;;;;;;2.30;2.20;;;;;;;11.53;83.40;100701.66;5072722;28;20028;-86
2022/05/23 02:33:50;;;;;;;3.00;2.70;;;;;;;11.51;82.45;100701.69;5072986;28;20024;-85
2022/05/23 02:36:15;;;;;;;2.70;2.50;;;;;;;11.49;83.22;100703.44;5072656;28;20473;-86
2022/05/23 02:38:41;;;;;;;2.40;2.20;;;;;;;11.46;83.50;100695.66;5055698;28;20111;-85
2022/05/23 02:41:06;;;;;;;2.53;2.33;;;;;;;11.43;82.88;100696.59;5072783;28;20036;-85
2022/05/23 02:43:32;;;;;;;2.65;2.45;;;;;;;11.42;83.54;100699.25;5055764;28;20024;-86
2022/05/23 02:46:00;;;;;;;2.35;2.25;;;;;;;11.40;82.86;100701.00;5072590;28;20092;-85
2022/05/23 02:48:25;;;;;;;2.88;2.67;;;;;;;11.39;83.44;100699.31;5071459;28;20028;-86
2022/05/23 02:50:50;;;;;;;3.00;2.80;;;;;;;11.39;82.29;100699.31;5055801;28;20078;-85
2022/05/23 02:53:16;;;;;;;3.05;2.25;;;;;;;11.37;82.93;100701.97;5072257;28;20024;-85
2022/05/23 02:55:41;;;;;;;2.47;2.38;;;;;;;11.36;83.24;100697.59;5055601;28;20027;-86
2022/05/23 02:58:07;;;;;;;3.67;3.10;;;;;;;11.35;82.76;100689.81;5055198;28;20123;-86
2022/05/23 03:00:36;;;;;;;2.80;2.60;;;;;;;11.33;82.98;100687.22;5055723;28;20481;-86
2022/05/23 03:03:01;;;;;;;2.85;2.42;;;;;;;11.32;83.17;100682.88;5071931;28;20474;-86
2022/05/23 03:05:28;;;;;;;2.35;2.22;;;;;;;11.31;83.40;100682.00;5055348;28;20089;-85
2022/05/23 03:07:53;;;;;;;3.67;2.55;;;;;;;11.30;83.24;100685.53;5072009;28;20021;-86
2022/05/23 03:10:19;;;;;;;2.45;2.25;;;;;;;11.29;83.41;100686.41;5055080;28;20039;-85
2022/05/23 03:12:45;;;;;;;2.88;2.42;;;;;;;11.29;82.95;100683.78;5071857;28;20715;-86
2022/05/23 03:15:11;;;;;;;2.80;2.63;;;;;;;11.29;82.96;100689.03;5055433;28;20035;-85
2022/05/23 03:17:37;;;;;;;3.13;2.50;;;;;;;11.28;84.08;100684.66;5054866;28;20394;-86
2022/05/23 03:20:03;;;;;;;3.38;2.72;;;;;;;11.27;83.83;100680.31;5071720;28;20453;-85
2022/05/23 03:27:57;;;;;;;2.83;2.63;;;;;;;11.26;83.27;100678.63;5071909;28;20023;-85
2022/05/23 03:30:22;;;;;;;3.10;2.80;;;;;;;11.25;83.45;100687.34;5054742;28;20029;-86
2022/05/23 03:32:47;;;;;;;2.67;2.58;;;;;;;11.23;83.21;100683.03;5071828;28;20074;-86
2022/05/23 03:35:13;;;;;;;3.22;2.83;;;;;;;11.22;83.01;100676.09;5071518;28;20432;-85
2022/05/23 03:37:38;;;;;;;2.92;2.72;;;;;;;11.21;83.34;100677.84;5054612;28;20033;-85
2022/05/23 03:40:05;;;;;;;4.03;2.90;;;;;;;11.19;82.49;100677.00;5054830;28;20422;-85
2022/05/23 03:42:31;;;;;;;2.90;2.70;;;;;;;11.18;82.78;100675.31;5071713;28;20488;-85
2022/05/23 03:44:56;;;;;;;3.22;2.95;;;;;;;11.15;82.82;100675.34;5054620;28;20040;-86
2022/05/23 03:47:22;;;;;;;3.65;3.25;;;;;;;11.15;83.17;100675.34;5071216;28;20052;-85
2022/05/23 03:49:47;;;;;;;3.10;2.80;;;;;;;11.14;83.48;100673.63;5073003;28;20019;-86
2022/05/23 03:52:13;;;;;;;3.13;2.90;;;;;;;11.12;82.87;100664.94;5069067;28;20537;-86
2022/05/23 03:54:38;;;;;;;3.05;2.85;;;;;;;11.11;83.13;100665.81;5070014;28;20024;-86
2022/05/23 03:57:04;;;;;;;2.92;2.72;;;;;;;11.10;83.16;100664.97;5041739;28;20079;-85
2022/05/23 03:59:30;;;;;;;3.25;2.97;;;;;;;11.10;82.82;100656.28;5046303;28;20025;-86
2022/05/23 04:01:57;;;;;;;5.43;2.95;;;;;;;11.10;83.82;100666.75;5071191;28;20512;-84
2022/05/23 04:04:26;;;;;;;3.20;3.00;;;;;;;11.10;83.21;100666.75;5071361;28;20032;-85
2022/05/23 04:06:52;;;;;;;3.47;3.20;;;;;;;11.09;83.07;100655.41;5068831;28;20044;-84
2022/05/23 04:09:18;;;;;;;2.83;2.63;;;;;;;11.09;83.26;100659.78;5054406;28;20036;-85
2022/05/23 04:11:44;;;;;;;3.35;3.08;;;;;;;11.07;83.71;100656.31;5071190;28;20438;-85
2022/05/23 04:14:10;;;;;;;3.97;3.67;;;;;;;11.08;83.62;100660.66;5071083;28;20370;-84
2022/05/23 04:16:35;;;;;;;3.58;3.30;;;;;;;11.07;82.85;100657.19;5070810;28;20029;-85
2022/05/23 04:19:05;;;;;;;3.55;2.75;;;;;;;11.08;82.91;100661.50;5070686;28;20020;-85
2022/05/23 04:21:31;;;;;;;3.45;3.10;;;;;;;11.09;83.58;100657.16;5070165;28;20032;-84
2022/05/23 04:23:56;;;;;;;3.47;3.10;;;;;;;11.09;83.02;100659.78;5054399;28;20028;-84
2022/05/23 04:26:21;;;;;;;3.20;2.90;;;;;;;11.08;83.46;100658.91;5087708;28;20551;-84
2022/05/23 04:28:47;;;;;;;3.25;2.95;;;;;;;11.09;82.79;100649.31;5087043;28;20420;-84
2022/05/23 04:31:12;;;;;;;3.67;3.38;;;;;;;11.09;83.42;100649.31;5070529;28;20123;-84
2022/05/23 04:36:21;;;;;;;3.72;3.42;;;;;;;11.11;83.32;100644.91;5070986;28;20497;-84
2022/05/23 04:38:47;;;;;;;3.30;3.10;;;;;;;11.11;83.33;100653.63;5070625;28;20060;-85
2022/05/23 04:41:13;;;;;;;3.30;3.10;;;;;;;11.14;83.17;100647.50;5070752;28;20027;-85
2022/05/23 04:43:38;;;;;;;3.40;3.17;;;;;;;11.15;83.72;100642.22;5070860;28;20016;-84
2022/05/23 04:46:04;;;;;;;3.00;2.85;;;;;;;11.19;83.06;100635.16;5070598;28;20063;-84
2022/05/23 04:51:13;;;;;;;3.10;2.80;;;;;;;11.26;82.60;100626.34;5071835;28;20086;-86
2022/05/23 04:53:39;;;;;;;4.70;2.65;;;;;;;11.30;82.41;100625.38;5070661;28;20478;-86
2022/05/23 04:56:05;;;;;;;3.22;2.90;;;;;;;11.36;82.29;100613.91;5070524;28;20056;-85
2022/05/23 04:58:30;;;;;;;2.78;2.60;;;;;;;11.40;82.34;100614.69;5070491;28;20021;-86
2022/05/23 05:00:56;;;;;;;3.00;2.80;;;;;;;11.44;81.99;100608.53;5070713;28;20070;-86
2022/05/23 05:03:22;;;;;;;2.55;2.35;;;;;;;11.46;82.22;100601.50;5070674;28;20025;-86
2022/05/23 05:05:47;;;;;;;2.83;2.63;;;;;;;11.47;81.53;100592.78;5070229;28;20159;-86
2022/05/23 05:08:13;;;;;;;2.70;2.58;;;;;;;11.46;81.92;100591.03;5070351;28;20419;-86
2022/05/23 05:10:38;;;;;;;3.72;2.90;;;;;;;11.48;81.12;100591.88;5070564;28;20020;-86
2022/05/23 05:13:04;;;;;;;2.80;2.60;;;;;;;11.49;81.76;100590.97;5070171;28;20119;-86
2022/05/23 05:15:29;;;;;;;3.05;2.47;;;;;;;11.50;81.53;100583.09;5070736;28;20025;-86
2022/05/23 05:17:55;;;;;;;2.92;2.63;;;;;;;11.51;81.37;100578.72;5070112;28;20028;-86
2022/05/23 05:20:21;;;;;;;2.97;2.67;;;;;;;11.51;82.15;100573.50;5070255;28;20056;-86
2022/05/23 05:22:47;;;;;;;2.40;2.00;;;;;;;11.53;82.41;100566.47;5070368;28;20017;-85
2022/05/23 05:25:13;;;;;;;2.15;2.05;;;;;;;11.55;82.26;100569.03;5070526;28;20012;-86
2022/05/23 05:27:39;;;;;;;2.58;2.35;;;;;;;11.57;82.53;100552.41;5070259;28;20027;-86
2022/05/23 05:30:07;;;;;;;3.28;2.85;;;;;;;11.56;81.13;100553.34;5070110;28;20029;-86
2022/05/23 05:32:40;;;;;;;4.97;2.60;;;;;;;11.57;80.05;100541.97;5070070;28;20028;-86
2022/05/23 05:35:11;;;;;;;2.50;2.30;;;;;;;11.60;81.26;100536.69;5070593;28;20039;-86
2022/05/23 05:37:44;;;;;;;2.70;2.30;;;;;;;11.63;80.87;100530.50;5070166;28;20482;-86
2022/05/23 05:40:10;;;;;;;2.55;2.05;;;;;;;11.62;79.75;100532.25;5070813;28;20024;-86
2022/05/23 05:42:39;;;;;;;2.83;2.47;;;;;;;11.65;79.49;100524.31;5071896;28;20025;-86
2022/05/23 05:45:11;;;;;;;3.20;2.38;;;;;;;11.67;79.60;100524.31;5073744;28;20406;-87
2022/05/23 05:47:39;;;;;;;3.45;2.20;;;;;;;11.71;80.21;100525.97;5073563;28;20505;-86
2022/05/23 05:50:11;;;;;;;3.65;2.10;;;;;;;11.74;80.70;100528.50;5073591;28;20020;-86
2022/05/23 05:52:37;;;;;;;2.40;2.20;;;;;;;11.78;80.57;100521.41;5073483;28;20033;-87
2022/05/23 05:55:04;;;;;;;2.78;2.40;;;;;;;11.83;80.42;100516.94;5073649;28;20024;-86
2022/05/23 05:57:30;;;;;;;2.65;2.45;;;;;;;11.90;80.90;100517.66;5073169;28;20047;-86
2022/05/23 05:59:55;;;;;;;2.25;2.05;;;;;;;11.97;80.75;100524.47;5073378;28;20021;-86
2022/05/23 06:02:21;;;;;;;3.25;2.30;;;;;;;12.03;81.02;100518.25;5056718;28;20493;-86
2022/05/23 06:04:47;;;;;;;2.17;1.92;;;;;;;12.08;80.66;100511.13;5056687;28;20444;-86
2022/05/23 06:12:49;;;;;;;2.30;2.17;;;;;;;12.16;80.16;100496.97;5073276;28;20092;-86
2022/05/23 06:15:14;;;;;;;4.85;1.88;;;;;;;12.15;78.99;100497.00;5073358;28;20024;-86
2022/05/23 06:17:43;;;;;;;2.40;1.98;;;;;;;12.16;78.15;100498.69;5073052;28;20062;-86
2022/05/23 06:20:13;;;;;;;1.75;1.65;;;;;;;12.18;79.35;100487.28;5072776;28;20146;-85
2022/05/23 06:22:38;;;;;;;5.80;2.15;;;;;;;12.22;79.06;100477.59;5072906;28;20020;-86
2022/05/23 06:25:05;;;;;;;3.90;2.08;;;;;;;12.24;78.14;100480.19;5073025;28;20027;-86
2022/05/23 06:27:30;;;;;;;2.03;1.88;;;;;;;12.28;79.21;100477.41;5072829;28;20028;-86
2022/05/23 06:29:56;;;;;;;2.25;1.80;;;;;;;12.33;80.01;100479.94;5072707;28;20020;-86
2022/05/23 06:32:22;;;;;;;2.90;1.90;;;;;;;12.38;79.39;100477.19;5072786;28;20111;-86
2022/05/23 06:34:51;;;;;;;1.80;1.70;;;;;;;12.42;78.56;100466.59;5072825;28;20028;-86
2022/05/23 06:37:16;;;;;;;3.53;1.70;;;;;;;12.49;78.22;100459.44;5072383;28;20403;-85
2022/05/23 06:39:41;;;;;;;2.80;1.88;;;;;;;12.54;77.65;100462.75;5072246;28;20042;-87
2022/05/23 06:42:07;;;;;;;5.85;1.50;;;;;;;12.57;76.12;100462.69;5072795;28;20028;-85
2022/05/23 06:44:32;;;;;;;2.67;1.63;;;;;;;12.62;75.78;100463.41;5072718;28;20020;-87
2022/05/23 06:46:58;;;;;;;3.58;2.33;;;;;;;12.68;76.11;100462.38;5072664;28;20012;-86
2022/05/23 06:49:25;;;;;;;2.03;1.60;;;;;;;12.72;76.94;100466.63;5072496;28;20032;-86
2022/05/23 06:51:52;;;;;;;2.30;1.83;;;;;;;12.79;77.94;100462.09;5072360;28;20052;-86
2022/05/23 06:54:21;;;;;;;1.88;1.50;;;;;;;12.83;78.42;100469.81;5072184;28;20124;-86
2022/05/23 06:56:48;;;;;;;2.60;2.42;;;;;;;12.88;75.86;100469.66;5055275;28;20047;-86
2022/05/23 06:59:15;;;;;;;4.20;1.70;;;;;;;12.95;74.98;100459.84;5072229;28;20382;-86
2022/05/23 07:01:40;;;;;;;2.55;1.50;;;;;;;13.04;74.65;100456.09;5072682;28;20016;-86
2022/05/23 07:04:06;;;;;;;2.65;1.42;;;;;;;13.14;75.39;100458.41;5072121;28;20032;-85
2022/05/23 07:14:43;;;;;;;2.05;1.77;;;;;;;13.56;74.88;100449.25;5072455;28;20043;-85
2022/05/23 07:17:09;;;;;;;6.40;1.63;;;;;;;13.60;73.36;100440.34;5055026;28;20024;-86
2022/05/23 07:19:35;;;;;;;3.90;1.30;;;;;;;13.62;72.74;100433.31;5071755;28;20078;-87
2022/05/23 07:22:02;;;;;;;3.78;1.30;;;;;;;13.65;73.00;100427.09;5071734;28;20089;-87
2022/05/23 07:24:28;;;;;;;2.10;1.40;;;;;;;13.69;72.66;100424.31;5072240;28;20432;-87
2022/05/23 07:26:58;;;;;;;2.20;1.40;;;;;;;13.75;73.36;100420.63;5071709;28;20013;-86
2022/05/23 07:29:24;;;;;;;1.92;1.10;;;;;;;13.81;71.97;100423.06;5071604;28;20023;-86
2022/05/23 07:31:50;;;;;;;3.72;1.27;;;;;;;13.88;72.17;100423.69;5071577;28;20021;-87
2022/05/23 07:34:16;;;;;;;1.23;1.13;;;;;;;13.95;71.96;100421.72;5071668;28;20032;-87
2022/05/23 07:36:41;;;;;;;1.98;1.20;;;;;;;14.01;70.58;100414.47;5071457;28;20381;-87
2022/05/23 07:39:10;;;;;;;0.93;0.93;;;;;;;14.10;70.84;100409.84;5070901;28;20490;-86
2022/05/23 07:41:36;;;;;;;1.40;1.05;;;;;;;14.15;71.40;100402.63;5071913;28;20114;-87
2022/05/23 07:44:01;;;;;;;1.30;1.20;;;;;;;14.19;70.41;100399.84;5071346;28;20465;-86
2022/05/23 07:46:27;;;;;;;2.33;1.33;;;;;;;14.21;71.60;100394.53;5054794;28;20016;-87
2022/05/23 07:48:52;;;;;;;1.58;1.15;;;;;;;14.27;70.43;100394.28;5071149;28;20020;-87
2022/05/23 07:51:20;;;;;;;2.40;1.00;;;;;;;14.31;72.11;100395.06;5071391;28;20516;-86
2022/05/23 08:01:59;;;;;;;2.53;1.20;;;;;;;14.52;67.08;100378.50;5071519;28;20448;-86
2022/05/23 08:04:24;;;;;;;4.43;1.17;;;;;;;14.57;67.43;100375.69;5053634;28;20028;-86
2022/05/23 08:06:50;;;;;;;4.15;1.13;;;;;;;14.62;68.53;100372.91;5071176;28;20071;-86
2022/05/23 08:09:16;;;;;;;6.13;1.23;;;;;;;14.67;67.86;100379.72;5070811;28;20024;-86
2022/05/23 08:11:44;;;;;;;1.33;1.05;;;;;;;14.71;67.75;100377.81;5071211;28;20448;-86
2022/05/23 08:14:10;;;;;;;2.00;1.00;;;;;;;14.76;67.12;100383.75;5054333;28;20466;-86
2022/05/23 08:16:36;;;;;;;1.85;1.10;;;;;;;14.82;65.72;100365.13;5070780;28;20048;-86
2022/05/23 08:19:03;;;;;;;1.10;0.98;;;;;;;14.87;67.28;100372.81;5075050;22;20072;-84
2022/05/23 08:21:29;;;;;;;2.30;1.05;;;;;;;14.91;65.27;100356.00;5051298;28;20056;-86
2022/05/23 08:23:54;;;;;;;1.65;1.33;;;;;;;14.96;67.19;100361.94;5034605;28;20036;-86
2022/05/23 08:26:20;;;;;;;1.58;1.13;;;;;;;15.00;66.27;100353.00;5051604;28;20017;-86
2022/05/23 08:28:46;;;;;;;2.33;1.30;;;;;;;15.04;68.04;100349.34;5050962;28;20021;-86
2022/05/23 08:31:11;;;;;;;1.60;0.93;;;;;;;15.06;67.74;100351.06;5051579;28;20024;-86
2022/05/23 08:33:36;;;;;;;3.17;1.65;;;;;;;15.10;65.18;100358.75;5034415;28;20093;-86
2022/05/23 08:36:02;;;;;;;3.00;1.10;;;;;;;15.15;64.65;100350.69;5034749;28;20088;-86
2022/05/23 08:38:27;;;;;;;2.22;1.13;;;;;;;15.20;65.75;100344.31;5050883;28;20031;-86
2022/05/23 08:40:59;;;;;;;3.45;1.27;;;;;;;15.25;66.67;100338.84;5034496;28;20056;-85
2022/05/23 08:43:33;;;;;;;1.40;1.27;;;;;;;15.29;66.91;100339.59;5051499;28;20028;-86
2022/05/23 08:46:00;;;;;;;1.30;1.02;;;;;;;15.32;65.91;100337.69;5034253;28;20037;-86
2022/05/23 08:48:57;;;;;;;1.58;1.45;;;;;;;15.40;66.52;100339.16;5051022;28;20049;-86
2022/05/23 08:51:33;;;;;;;3.33;1.70;;;;;;;15.45;67.09;100343.28;5034853;28;20025;-86
2022/05/23 08:54:05;;;;;;;2.78;1.20;;;;;;;15.53;65.00;100335.09;5034269;28;20524;-86
2022/05/23 08:56:33;;;;;;;2.25;1.38;;;;;;;15.62;64.64;100334.66;5050955;28;20028;-86
2022/05/23 08:59:00;;;;;;;5.03;1.20;;;;;;;15.70;62.92;100332.56;5051061;28;20032;-86
2022/05/23 09:01:36;;;;;;;3.38;1.20;;;;;;;15.78;62.62;100329.59;5051794;28;20028;-86
2022/05/23 09:04:11;;;;;;;1.67;1.30;;;;;;;15.87;64.36;100328.41;5035370;28;20025;-86
2022/05/23 09:06:44;;;;;;;2.75;1.75;;;;;;;15.94;63.79;100334.22;5051662;28;20110;-86
2022/05/23 09:09:10;;;;;;;3.47;2.03;;;;;;;15.98;63.42;100323.50;5067684;28;20025;-86
2022/05/23 09:11:50;;;;;;;4.28;1.98;;;;;;;16.04;63.39;100325.00;5051078;28;20028;-86
2022/05/23 09:14:18;;;;;;;2.15;1.52;;;;;;;16.12;63.18;100322.03;5034907;28;20036;-86
2022/05/23 09:16:46;;;;;;;2.47;1.42;;;;;;;16.20;63.17;100319.91;5037122;28;20025;-86
2022/05/23 09:19:17;;;;;;;2.22;1.83;;;;;;;16.26;62.83;100314.31;5055459;28;20025;-86
2022/05/23 09:24:37;;;;;;;3.10;1.77;;;;;;;16.37;60.46;100298.91;5056337;28;20444;-86
2022/05/23 09:27:08;;;;;;;5.68;1.70;;;;;;;16.44;61.63;100301.22;5055613;28;20028;-85
2022/05/23 09:29:33;;;;;;;2.92;1.42;;;;;;;16.52;61.72;100293.81;5038684;28;20025;-86
2022/05/23 09:32:05;;;;;;;1.65;1.52;;;;;;;16.58;60.33;100290.03;5038830;28;20021;-86
2022/05/23 09:34:34;;;;;;;2.30;1.90;;;;;;;16.66;59.80;100285.22;5038132;28;20498;-86
2022/05/23 09:37:02;;;;;;;2.65;1.80;;;;;;;16.71;59.98;100270.06;5054794;28;20060;-86
2022/05/23 09:39:29;;;;;;;2.47;1.98;;;;;;;16.78;61.21;100267.97;5054826;28;20028;-86
2022/05/23 09:47:46;;;;;;;2.17;1.80;;;;;;;16.95;60.65;100259.28;5055461;28;20027;-86
2022/05/23 09:50:37;;;;;;;1.73;1.63;;;;;;;16.99;60.68;100251.13;5055739;28;20486;-86
2022/05/23 09:53:03;;;;;;;1.60;1.50;;;;;;;17.03;59.52;100252.69;5017531;28;20036;-86
2022/05/23 09:55:34;;;;;;;1.98;1.63;;;;;;;17.05;59.18;100261.34;5055715;28;20021;-86
2022/05/23 09:58:07;;;;;;;1.80;1.70;;;;;;;17.08;59.79;100249.78;5054415;28;20025;-86
2022/05/23 10:00:37;;;;;;;3.25;2.30;;;;;;;17.14;61.50;100256.53;5055276;28;20398;-86
2022/05/23 10:03:13;;;;;;;5.80;1.63;;;;;;;17.20;61.66;100246.53;5038588;28;20518;-86
2022/05/23 10:05:42;;;;;;;2.22;1.40;;;;;;;17.24;59.99;100244.59;5054820;28;20083;-86
2022/05/23 10:08:29;;;;;;;4.47;1.90;;;;;;;17.29;60.30;100234.66;5037365;28;20120;-86
2022/05/23 10:10:58;;;;;;;3.08;2.35;;;;;;;17.35;59.03;100244.06;5037874;28;20082;-86
2022/05/23 10:13:33;;;;;;;2.95;1.60;;;;;;;17.37;60.21;100239.56;5037627;28;20048;-86
2022/05/23 10:16:20;;;;;;;1.73;1.38;;;;;;;17.38;57.73;100231.56;5054753;28;20525;-86
2022/05/23 10:18:57;;;;;;;3.25;1.90;;;;;;;17.43;59.10;100231.31;5045703;28;20037;-86
2022/05/23 10:21:36;;;;;;;3.50;1.80;;;;;;;17.48;60.69;100231.06;5054707;28;20029;-86
2022/05/23 10:24:17;;;;;;;1.90;1.70;;;;;;;17.51;60.07;100226.47;5038207;28;20020;-86
2022/05/23 10:26:52;;;;;;;2.45;1.85;;;;;;;17.55;60.53;100222.72;5054842;28;20048;-86
2022/05/23 10:29:36;;;;;;;1.88;1.42;;;;;;;17.61;61.32;100220.72;5036192;28;20104;-87
2022/05/23 10:32:07;;;;;;;2.60;1.80;;;;;;;17.68;60.88;100211.53;5053049;28;20119;-87
2022/05/23 10:35:05;;;;;;;2.55;2.03;;;;;;;17.72;58.43;100206.00;5053707;28;20071;-86
2022/05/23 10:37:36;;;;;;;3.10;1.73;;;;;;;17.79;60.09;100201.22;5037170;28;20060;-86
2022/05/23 10:42:57;;;;;;;3.65;1.95;;;;;;;17.89;58.08;100205.06;5053748;28;20398;-84
2022/05/23 10:45:22;;;;;;;6.13;2.33;;;;;;;17.93;56.14;100195.25;5053261;28;20052;-86
2022/05/23 10:47:54;;;;;;;5.28;2.00;;;;;;;17.96;57.07;100204.78;5053669;28;20532;-86
2022/05/23 10:50:45;;;;;;;2.00;1.90;;;;;;;18.00;56.45;100193.94;5053641;28;20068;-85
2022/05/23 10:53:15;;;;;;;2.08;1.98;;;;;;;18.04;57.79;100190.19;5054364;28;20112;-86
2022/05/23 10:56:04;;;;;;;6.50;1.95;;;;;;;18.11;56.47;100181.94;5036955;28;20032;-86
2022/05/23 10:58:43;;;;;;;3.10;1.80;;;;;;;18.17;57.08;100173.66;5053970;28;20479;-85
2022/05/23 11:01:40;;;;;;;3.17;1.83;;;;;;;18.26;57.40;100170.50;5054409;28;20114;-86
2022/05/23 11:04:23;;;;;;;5.05;2.20;;;;;;;18.37;58.97;100165.44;5055405;28;20509;-86
2022/05/23 11:07:25;;;;;;;4.10;2.13;;;;;;;18.49;56.59;100166.53;5070681;28;20489;-86
2022/05/23 11:10:26;;;;;;;5.40;1.83;;;;;;;18.60;56.52;100163.28;5053573;28;20059;-86
2022/05/23 11:13:28;;;;;;;3.55;1.90;;;;;;;18.69;56.60;100157.47;5037361;28;20486;-85
2022/05/23 11:16:16;;;;;;;4.47;1.95;;;;;;;18.77;54.75;100159.63;5053399;28;20032;-86
2022/05/23 11:19:09;;;;;;;4.25;2.38;;;;;;;18.83;54.05;100142.53;5037510;28;20029;-83
2022/05/23 11:21:41;;;;;;;2.80;1.75;;;;;;;18.88;55.76;100145.81;5054791;28;20052;-86
2022/05/23 11:24:20;;;;;;;2.53;1.70;;;;;;;18.94;54.20;100139.28;5054260;28;20111;-85
2022/05/23 11:26:49;;;;;;;2.25;1.58;;;;;;;19.00;55.60;100139.78;5053896;28;20408;-85
2022/05/23 11:35:03;;;;;;;2.97;2.00;;;;;;;19.27;54.55;100125.81;5053577;28;20497;-85
2022/05/23 11:37:45;;;;;;;5.25;1.85;;;;;;;19.35;53.26;100128.00;5032063;28;20029;-83
2022/05/23 11:40:37;;;;;;;3.63;1.65;;;;;;;19.42;53.52;100116.91;5034258;28;20028;-82
2022/05/23 11:43:05;;;;;;;2.70;1.80;;;;;;;19.53;53.26;100120.69;5004402;28;20091;-83
2022/05/23 11:48:34;;;;;;;2.00;1.60;;;;;;;19.70;52.60;100111.66;5054026;28;20049;-84
2022/05/23 11:51:26;;;;;;;1.67;1.40;;;;;;;19.76;53.54;100093.56;5055705;28;20063;-83
2022/05/23 11:54:00;;;;;;;1.70;1.50;;;;;;;19.86;53.88;100088.56;5038071;28;20021;-83
2022/05/23 11:56:41;;;;;;;3.88;2.03;;;;;;;19.93;52.83;100081.06;5053419;28;20036;-83
2022/05/23 11:59:10;;;;;;;3.33;1.85;;;;;;;19.97;53.54;100079.91;5049238;28;20517;-83
2022/05/23 12:01:36;;;;;;;1.70;1.50;;;;;;;20.07;53.03;100088.97;5038261;28;20028;-83
2022/05/23 12:04:01;;;;;;;1.70;1.60;;;;;;;20.13;51.79;100084.22;5038569;28;20048;-83
2022/05/23 12:06:29;;;;;;;1.77;1.63;;;;;;;20.22;50.59;100065.03;5055198;28;20047;-84
2022/05/23 12:09:19;;;;;;;3.60;1.70;;;;;;;20.30;52.67;100051.28;5039224;28;20633;-84
2022/05/23 12:11:52;;;;;;;2.00;1.38;;;;;;;20.33;51.54;100051.94;5047028;28;20096;-83
2022/05/23 12:14:41;;;;;;;2.25;1.75;;;;;;;20.35;51.03;100047.34;5039212;28;20045;-83
2022/05/23 12:17:25;;;;;;;1.95;1.70;;;;;;;20.40;53.58;100047.91;5042811;28;20033;-83
2022/05/23 12:19:59;;;;;;;2.00;1.60;;;;;;;20.44;51.36;100046.75;5036058;28;20032;-83
2022/05/23 12:22:36;;;;;;;3.10;1.77;;;;;;;20.53;51.69;100036.44;5020065;28;20021;-83
2022/05/23 12:25:08;;;;;;;3.50;1.60;;;;;;;20.63;49.00;100026.91;5020646;28;20037;-83
2022/05/23 12:27:39;;;;;;;2.90;1.70;;;;;;;20.69;48.79;100031.81;5036767;28;20026;-83
2022/05/23 12:30:24;;;;;;;1.73;1.63;;;;;;;20.75;49.82;100025.22;5020146;28;20056;-80
2022/05/23 12:32:52;;;;;;;;;;;;;;;20.83;48.12;100022.06;5036406;28;20029;-82
2022/05/23 12:35:20;;;;;;;2.00;1.48;;;;;;;20.91;48.38;100014.41;5047734;28;19959;-82
2022/05/23 12:38:17;;;;;;;2.67;1.50;;;;;;;21.01;48.32;100004.84;5040067;28;20025;-82